createdAt,value
2023-05-20T00:00:16.558Z,6.60
2023-05-20T00:03:07.896Z,7.60
2023-05-20T00:05:37.851Z,7.00
2023-05-20T00:08:09.644Z,6.60
2023-05-20T00:10:37.700Z,7.10
2023-05-20T00:13:06.640Z,7.10
2023-05-20T00:15:40.295Z,6.20
2023-05-20T00:18:08.430Z,7.10
2023-05-20T00:20:40.060Z,7.20
2023-05-20T00:23:09.291Z,6.80
2023-05-20T00:25:37.414Z,6.90
2023-05-20T00:28:06.281Z,6.30
2023-05-20T00:30:36.453Z,7.30
2023-05-20T00:33:04.488Z,6.60
2023-05-20T00:35:35.118Z,5.70
2023-05-20T00:38:06.002Z,6.00
2023-05-20T00:40:35.993Z,6.30
2023-05-20T00:43:04.240Z,6.20
2023-05-20T00:45:32.967Z,6.30
2023-05-20T00:48:04.251Z,6.50
2023-05-20T00:50:32.482Z,6.90
2023-05-20T00:53:00.470Z,6.00
2023-05-20T00:55:30.731Z,6.60
2023-05-20T00:58:00.701Z,6.60
2023-05-20T01:00:28.810Z,6.10
2023-05-20T01:02:57.428Z,6.60
2023-05-20T01:05:25.712Z,6.30
2023-05-20T01:07:59.401Z,6.80
2023-05-20T01:10:30.496Z,6.70
2023-05-20T01:13:00.394Z,5.80
2023-05-20T01:15:28.892Z,6.00
2023-05-20T01:18:01.627Z,6.00
2023-05-20T01:20:32.583Z,6.30
2023-05-20T01:23:00.897Z,5.20
2023-05-20T01:25:31.710Z,6.30
2023-05-20T01:28:01.807Z,5.60
2023-05-20T01:30:36.516Z,6.10
2023-05-20T01:33:10.816Z,6.20
2023-05-20T01:35:43.983Z,6.30
2023-05-20T01:38:12.817Z,6.00
2023-05-20T01:40:43.444Z,6.00
2023-05-20T01:43:11.923Z,6.30
2023-05-20T01:45:42.084Z,6.40
2023-05-20T01:48:13.553Z,6.90
2023-05-20T01:50:50.573Z,6.90
2023-05-20T01:53:18.556Z,6.10
2023-05-20T01:55:46.481Z,6.80
2023-05-20T01:58:14.702Z,6.70
2023-05-20T02:00:42.673Z,6.80
2023-05-20T02:03:11.397Z,6.10
2023-05-20T02:05:41.976Z,5.80
2023-05-20T02:08:13.172Z,6.70
2023-05-20T02:10:41.089Z,6.50
2023-05-20T02:13:09.100Z,6.40
2023-05-20T02:15:41.458Z,6.30
2023-05-20T02:18:09.502Z,6.20
2023-05-20T02:20:37.583Z,6.00
2023-05-20T02:23:06.959Z,6.40
2023-05-20T02:25:37.139Z,6.10
2023-05-20T02:28:10.829Z,5.90
2023-05-20T02:30:39.219Z,7.30
2023-05-20T02:33:08.433Z,7.60
2023-05-20T02:35:37.562Z,6.40
2023-05-20T02:38:05.856Z,6.70
2023-05-20T02:40:34.599Z,6.30
2023-05-20T02:43:05.943Z,6.50
2023-05-20T02:45:34.800Z,5.90
2023-05-20T02:48:03.048Z,6.90
2023-05-20T02:50:36.282Z,6.80
2023-05-20T02:53:04.274Z,6.90
2023-05-20T02:55:34.569Z,5.90
2023-05-20T02:58:02.930Z,5.60
2023-05-20T03:00:31.580Z,6.20
2023-05-20T03:02:59.552Z,6.10
2023-05-20T03:05:29.258Z,5.70
2023-05-20T03:07:58.759Z,6.50
2023-05-20T03:10:28.441Z,7.10
2023-05-20T03:12:58.259Z,6.40
2023-05-20T03:15:30.148Z,6.00
2023-05-20T03:17:58.118Z,6.70
2023-05-20T03:20:27.103Z,6.50
2023-05-20T03:22:57.198Z,6.50
2023-05-20T03:25:26.371Z,6.20
2023-05-20T03:27:54.361Z,6.50
2023-05-20T03:30:23.662Z,6.70
2023-05-20T03:32:54.736Z,6.30
2023-05-20T03:35:25.335Z,6.40
2023-05-20T03:37:53.582Z,6.40
2023-05-20T03:40:26.259Z,5.90
2023-05-20T03:42:54.605Z,5.80
2023-05-20T03:45:22.849Z,6.30
2023-05-20T03:47:59.082Z,6.20
2023-05-20T03:50:27.346Z,6.20
2023-05-20T03:52:58.254Z,6.70
2023-05-20T03:55:29.176Z,5.70
2023-05-20T03:57:57.239Z,6.60
2023-05-20T04:00:25.253Z,7.10
2023-05-20T04:02:53.471Z,6.40
2023-05-20T04:05:25.320Z,7.10
2023-05-20T04:07:57.572Z,6.90
2023-05-20T04:10:28.204Z,6.80
2023-05-20T04:12:59.011Z,7.00
2023-05-20T04:15:33.069Z,6.80
2023-05-20T04:18:01.605Z,6.70
2023-05-20T04:20:31.768Z,7.10
2023-05-20T04:23:01.684Z,6.60
2023-05-20T04:25:29.614Z,6.80
2023-05-20T04:27:58.480Z,6.70
2023-05-20T04:30:26.598Z,7.60
2023-05-20T04:32:56.122Z,6.90
2023-05-20T04:35:26.334Z,6.80
2023-05-20T04:37:58.211Z,6.70
2023-05-20T04:40:27.597Z,7.20
2023-05-20T04:42:58.590Z,7.00
2023-05-20T04:45:26.998Z,6.20
2023-05-20T04:47:54.955Z,7.00
2023-05-20T04:50:26.100Z,6.40
2023-05-20T04:52:54.175Z,8.50
2023-05-20T04:55:25.026Z,6.80
2023-05-20T04:57:55.842Z,6.70
2023-05-20T05:00:23.998Z,6.70
2023-05-20T05:02:52.038Z,6.60
2023-05-20T05:05:20.263Z,7.40
2023-05-20T05:07:49.075Z,6.90
2023-05-20T05:10:21.936Z,6.20
2023-05-20T05:12:50.001Z,6.80
2023-05-20T05:15:18.010Z,7.10
2023-05-20T05:17:46.247Z,6.10
2023-05-20T05:20:14.811Z,6.00
2023-05-20T05:22:45.348Z,6.20
2023-05-20T05:25:13.993Z,6.00
2023-05-20T05:27:50.431Z,5.80
2023-05-20T05:30:18.673Z,6.70
2023-05-20T05:32:49.436Z,6.40
2023-05-20T05:35:18.589Z,7.20
2023-05-20T05:37:46.606Z,7.40
2023-05-20T05:40:17.013Z,7.50
2023-05-20T05:42:45.614Z,7.50
2023-05-20T05:45:16.484Z,7.80
2023-05-20T05:47:48.036Z,8.10
2023-05-20T05:50:16.256Z,7.90
2023-05-20T05:52:44.333Z,7.70
2023-05-20T05:55:12.495Z,7.70
2023-05-20T05:57:43.034Z,7.80
2023-05-20T06:00:12.101Z,7.90
2023-05-20T06:02:46.600Z,6.70
2023-05-20T06:05:17.864Z,8.30
2023-05-20T06:07:49.164Z,6.50
2023-05-20T06:10:23.363Z,6.20
2023-05-20T06:12:54.136Z,7.10
2023-05-20T06:15:22.191Z,7.20
2023-05-20T06:17:50.309Z,7.30
2023-05-20T06:20:18.364Z,7.00
2023-05-20T06:22:46.316Z,6.50
2023-05-20T06:25:19.126Z,7.00
2023-05-20T06:27:47.215Z,6.80
2023-05-20T06:30:18.361Z,6.00
2023-05-20T06:32:46.892Z,5.80
2023-05-20T06:35:15.070Z,6.10
2023-05-20T06:37:45.833Z,6.20
2023-05-20T06:40:13.940Z,7.00
2023-05-20T06:42:46.254Z,6.70
2023-05-20T06:45:16.702Z,6.50
2023-05-20T06:47:51.271Z,7.20
2023-05-20T06:50:21.683Z,6.10
2023-05-20T06:52:52.954Z,6.70
2023-05-20T06:55:23.839Z,6.60
2023-05-20T06:57:51.935Z,6.70
2023-05-20T07:00:20.212Z,6.30
2023-05-20T07:02:48.352Z,6.20
2023-05-20T07:05:16.545Z,7.10
2023-05-20T07:07:46.963Z,6.40
2023-05-20T07:10:14.962Z,6.40
2023-05-20T07:12:43.442Z,6.50
2023-05-20T07:15:11.657Z,6.80
2023-05-20T07:17:40.515Z,6.70
2023-05-20T07:20:09.236Z,6.10
2023-05-20T07:22:40.323Z,5.60
2023-05-20T07:25:23.183Z,6.40
2023-05-20T07:27:54.328Z,6.90
2023-05-20T07:30:22.309Z,6.90
2023-05-20T07:33:03.685Z,6.40
2023-05-20T07:35:35.764Z,12.60
2023-05-20T07:38:04.018Z,6.20
2023-05-20T07:40:39.087Z,7.30
2023-05-20T07:43:07.937Z,7.20
2023-05-20T07:45:38.853Z,6.80
2023-05-20T07:48:08.998Z,6.90
2023-05-20T07:53:09.484Z,7.30
2023-05-20T07:55:37.579Z,7.00
2023-05-20T07:58:06.492Z,6.20
2023-05-20T08:00:36.121Z,8.00
2023-05-20T08:03:10.326Z,6.50
2023-05-20T08:05:55.938Z,6.40
2023-05-20T08:08:27.101Z,6.80
2023-05-20T08:10:58.919Z,7.10
2023-05-20T08:13:28.928Z,6.50
2023-05-20T08:15:56.927Z,6.60
2023-05-20T08:18:25.015Z,6.20
2023-05-20T08:20:53.143Z,6.30
2023-05-20T08:23:21.391Z,6.20
2023-05-20T08:25:50.810Z,6.40
2023-05-20T08:28:22.122Z,6.20
2023-05-20T08:30:53.480Z,7.50
2023-05-20T08:33:22.838Z,6.70
2023-05-20T08:35:53.593Z,7.30
2023-05-20T08:38:21.690Z,6.90
2023-05-20T08:40:58.278Z,6.60
2023-05-20T08:43:26.795Z,5.90
2023-05-20T08:45:55.197Z,6.70
2023-05-20T08:48:26.137Z,6.40
2023-05-20T08:50:56.105Z,6.50
2023-05-20T08:53:27.146Z,6.40
2023-05-20T08:56:00.924Z,6.50
2023-05-20T08:58:35.845Z,5.70
2023-05-20T09:01:08.630Z,6.10
2023-05-20T09:07:44.810Z,6.90
2023-05-20T09:10:13.490Z,6.20
2023-05-20T09:12:43.786Z,6.10
2023-05-20T09:15:17.287Z,7.90
2023-05-20T09:17:49.519Z,6.30
2023-05-20T09:20:17.594Z,7.40
2023-05-20T09:22:47.853Z,6.50
2023-05-20T09:25:18.927Z,6.60
2023-05-20T09:28:13.941Z,6.10
2023-05-20T09:30:42.426Z,5.20
2023-05-20T09:33:12.477Z,5.40
2023-05-20T09:35:58.657Z,5.90
2023-05-20T09:38:54.234Z,6.00
2023-05-20T09:41:32.230Z,5.70
2023-05-20T09:44:00.390Z,5.70
2023-05-20T09:46:28.988Z,5.90
2023-05-20T09:49:02.309Z,5.70
2023-05-20T09:51:34.157Z,5.50
2023-05-20T09:54:04.157Z,5.70
2023-05-20T09:56:32.233Z,6.00
2023-05-20T10:02:02.691Z,8.00
2023-05-20T10:04:34.514Z,5.60
2023-05-20T10:07:44.168Z,5.80
2023-05-20T10:10:17.726Z,5.40
2023-05-20T10:13:04.065Z,6.10
2023-05-20T10:15:50.589Z,5.80
2023-05-20T10:18:30.454Z,6.50
2023-05-20T10:21:00.754Z,5.90
2023-05-20T10:23:31.358Z,5.80
2023-05-20T10:25:59.418Z,6.50
2023-05-20T10:28:30.932Z,5.60
2023-05-20T10:30:59.417Z,6.40
2023-05-20T10:33:30.610Z,5.70
2023-05-20T10:35:59.399Z,5.80
2023-05-20T10:38:27.408Z,5.60
2023-05-20T10:40:57.511Z,5.50
2023-05-20T10:43:26.457Z,5.60
2023-05-20T10:45:57.912Z,6.20
2023-05-20T10:48:26.357Z,5.80
2023-05-20T10:50:56.666Z,5.70
2023-05-20T10:53:33.267Z,5.70
2023-05-20T10:56:01.881Z,5.60
2023-05-20T10:58:36.711Z,5.50
2023-05-20T11:01:04.910Z,5.90
2023-05-20T11:03:35.327Z,5.40
2023-05-20T11:06:11.175Z,6.30
2023-05-20T11:08:39.152Z,5.90
2023-05-20T11:11:10.679Z,5.80
2023-05-20T11:16:06.886Z,5.00
2023-05-20T11:18:34.950Z,5.30
2023-05-20T11:21:03.282Z,5.60
2023-05-20T11:23:31.421Z,5.10
2023-05-20T11:25:59.514Z,5.00
2023-05-20T11:28:30.926Z,5.90
2023-05-20T11:31:01.396Z,6.10
2023-05-20T11:33:30.663Z,6.90
2023-05-20T11:35:58.664Z,5.20
2023-05-20T11:38:26.751Z,5.10
2023-05-20T11:41:00.233Z,4.80
2023-05-20T11:43:28.335Z,4.70
2023-05-20T11:46:02.513Z,5.00
2023-05-20T11:48:30.508Z,4.80
2023-05-20T11:51:00.628Z,5.20
2023-05-20T11:55:59.502Z,5.00
2023-05-20T11:58:30.193Z,4.60
2023-05-20T12:01:13.518Z,4.70
2023-05-20T12:03:51.577Z,5.60
2023-05-20T12:06:24.173Z,4.80
2023-05-20T12:08:52.286Z,5.20
2023-05-20T12:11:22.884Z,5.40
2023-05-20T12:13:53.937Z,6.80
2023-05-20T12:16:24.557Z,5.90
2023-05-20T12:18:58.006Z,5.20
2023-05-20T12:21:26.179Z,6.60
2023-05-20T12:23:57.934Z,5.70
2023-05-20T12:26:30.076Z,5.30
2023-05-20T12:28:58.129Z,4.80
2023-05-20T12:31:26.301Z,5.00
2023-05-20T12:33:54.314Z,4.50
2023-05-20T12:36:22.386Z,4.80
2023-05-20T12:38:56.756Z,5.10
2023-05-20T12:41:24.885Z,4.90
2023-05-20T12:43:58.212Z,5.00
2023-05-20T12:46:29.143Z,4.50
2023-05-20T12:48:59.733Z,5.40
2023-05-20T12:51:27.714Z,5.00
2023-05-20T12:53:55.896Z,4.00
2023-05-20T12:56:25.414Z,5.20
2023-05-20T12:58:53.575Z,4.70
2023-05-20T13:01:21.522Z,5.00
2023-05-20T13:03:53.043Z,4.70
2023-05-20T13:06:24.269Z,4.40
2023-05-20T13:11:23.123Z,5.90
2023-05-20T13:13:51.122Z,4.50
2023-05-20T13:16:19.900Z,4.40
2023-05-20T13:18:51.430Z,5.90
2023-05-20T13:23:49.677Z,4.20
2023-05-20T13:26:18.760Z,4.20
2023-05-20T13:28:47.105Z,4.20
2023-05-20T13:31:17.428Z,4.10
2023-05-20T13:33:47.526Z,4.10
2023-05-20T13:36:18.746Z,4.20
2023-05-20T13:38:46.816Z,3.80
2023-05-20T13:41:18.184Z,3.60
2023-05-20T13:43:46.714Z,3.10
2023-05-20T13:46:16.170Z,2.50
2023-05-20T13:48:44.523Z,3.10
2023-05-20T13:51:15.448Z,3.30
2023-05-20T13:53:43.429Z,2.70
2023-05-20T13:56:11.725Z,3.30
2023-05-20T13:58:42.661Z,2.60
2023-05-20T14:01:12.703Z,3.10
2023-05-20T14:03:41.238Z,3.30
2023-05-20T14:06:16.157Z,3.70
2023-05-20T14:08:44.431Z,3.90
2023-05-20T14:11:14.510Z,3.10
2023-05-20T14:13:45.134Z,4.10
2023-05-20T14:16:14.463Z,2.90
2023-05-20T14:18:44.624Z,3.30
2023-05-20T14:21:12.553Z,3.40
2023-05-20T14:23:44.494Z,3.30
2023-05-20T14:26:38.678Z,3.50
2023-05-20T14:29:31.891Z,3.60
2023-05-20T14:32:05.188Z,4.10
2023-05-20T14:34:33.192Z,4.80
2023-05-20T14:37:07.641Z,4.20
2023-05-20T14:42:27.535Z,4.80
2023-05-20T14:44:58.349Z,4.20
2023-05-20T14:47:38.493Z,4.10
2023-05-20T14:50:15.462Z,4.40
2023-05-20T14:52:45.288Z,4.20
2023-05-20T14:55:16.607Z,3.90
2023-05-20T14:57:44.701Z,4.00
2023-05-20T15:00:14.185Z,4.00
2023-05-20T15:02:42.287Z,4.10
2023-05-20T15:05:15.370Z,3.40
2023-05-20T15:07:47.001Z,3.90
2023-05-20T15:10:15.033Z,3.70
2023-05-20T15:12:42.990Z,3.80
2023-05-20T15:15:14.068Z,4.20
2023-05-20T15:17:42.031Z,3.60
2023-05-20T15:20:11.934Z,3.50
2023-05-20T15:22:41.518Z,3.80
2023-05-20T15:25:10.769Z,3.40
2023-05-20T15:27:42.235Z,3.20
2023-05-20T15:30:10.613Z,3.30
2023-05-20T15:32:41.036Z,3.90
2023-05-20T15:35:09.724Z,3.30
2023-05-20T15:37:40.177Z,3.40
2023-05-20T15:40:08.887Z,3.60
2023-05-20T15:42:37.216Z,3.70
2023-05-20T15:45:07.375Z,3.60
2023-05-20T15:47:39.892Z,3.40
2023-05-20T15:50:11.227Z,4.30
2023-05-20T15:52:43.454Z,3.70
2023-05-20T15:55:14.503Z,3.70
2023-05-20T15:57:42.540Z,4.00
2023-05-20T16:00:11.009Z,4.70
2023-05-20T16:02:42.250Z,4.20
2023-05-20T16:05:13.037Z,4.60
2023-05-20T16:07:43.535Z,4.50
2023-05-20T16:10:11.869Z,4.00
2023-05-20T16:12:39.938Z,3.90
2023-05-20T16:15:11.214Z,4.30
2023-05-20T16:17:39.224Z,3.90
2023-05-20T16:20:08.324Z,3.50
2023-05-20T16:22:39.080Z,4.00
2023-05-20T16:25:13.818Z,4.40
2023-05-20T16:27:41.733Z,4.20
2023-05-20T16:30:16.275Z,4.00
2023-05-20T16:33:06.773Z,4.00
2023-05-20T16:35:49.984Z,4.70
2023-05-20T16:38:18.400Z,5.10
2023-05-20T16:40:51.605Z,4.00
2023-05-20T16:43:20.264Z,4.10
2023-05-20T16:45:56.943Z,4.30
2023-05-20T16:48:26.868Z,4.50
2023-05-20T16:50:56.725Z,4.60
2023-05-20T16:53:24.873Z,4.30
2023-05-20T16:55:53.020Z,4.00
2023-05-20T16:58:21.362Z,4.00
2023-05-20T17:00:49.367Z,4.60
2023-05-20T17:03:21.969Z,4.40
2023-05-20T17:05:50.038Z,4.80
2023-05-20T17:08:18.467Z,5.00
2023-05-20T17:10:50.736Z,4.70
2023-05-20T17:13:20.573Z,4.80
2023-05-20T17:15:50.654Z,4.70
2023-05-20T17:18:18.569Z,4.80
2023-05-20T17:20:49.502Z,4.80
2023-05-20T17:23:17.526Z,4.90
2023-05-20T17:25:47.834Z,4.20
2023-05-20T17:28:19.791Z,5.20
2023-05-20T17:30:52.186Z,4.70
2023-05-20T17:33:25.789Z,4.30
2023-05-20T17:35:56.248Z,3.70
2023-05-20T17:38:26.451Z,4.00
2023-05-20T17:40:59.759Z,3.40
2023-05-20T17:43:27.912Z,3.80
2023-05-20T17:45:56.227Z,3.20
2023-05-20T17:48:24.311Z,3.50
2023-05-20T17:50:52.319Z,3.60
2023-05-20T17:53:22.041Z,3.80
2023-05-20T17:55:54.576Z,3.50
2023-05-20T17:58:24.953Z,4.10
2023-05-20T18:00:55.545Z,3.70
2023-05-20T18:03:27.956Z,3.90
2023-05-20T18:05:59.672Z,3.90
2023-05-20T18:08:30.625Z,4.50
2023-05-20T18:10:59.034Z,4.10
2023-05-20T18:13:29.831Z,4.40
2023-05-20T18:16:00.661Z,4.20
2023-05-20T18:18:28.692Z,4.10
2023-05-20T18:21:05.986Z,4.70
2023-05-20T18:23:34.036Z,4.60
2023-05-20T18:26:06.869Z,5.20
2023-05-20T18:28:35.053Z,4.60
2023-05-20T18:31:03.162Z,4.40
2023-05-20T18:33:31.814Z,4.40
2023-05-20T18:35:59.922Z,4.60
2023-05-20T18:38:30.176Z,4.30
2023-05-20T18:41:00.952Z,4.40
2023-05-20T18:43:28.912Z,4.40
2023-05-20T18:46:00.324Z,4.70
2023-05-20T18:48:28.435Z,4.50
2023-05-20T18:50:56.712Z,4.40
2023-05-20T18:53:24.864Z,4.50
2023-05-20T18:55:52.993Z,4.30
2023-05-20T18:58:21.340Z,4.60
2023-05-20T19:00:50.866Z,4.30
2023-05-20T19:03:21.967Z,5.30
2023-05-20T19:05:50.016Z,4.00
2023-05-20T19:08:20.747Z,5.00
2023-05-20T19:10:57.231Z,5.30
2023-05-20T19:13:26.678Z,4.80
2023-05-20T19:15:54.766Z,5.10
2023-05-20T19:18:25.063Z,4.90
2023-05-20T19:20:53.254Z,4.90
2023-05-20T19:23:24.039Z,4.90
2023-05-20T19:25:51.987Z,4.50
2023-05-20T19:28:20.001Z,4.20
2023-05-20T19:30:48.088Z,5.00
2023-05-20T19:33:16.232Z,4.60
2023-05-20T19:35:44.227Z,4.30
2023-05-20T19:38:12.596Z,4.30
2023-05-20T19:40:40.687Z,4.30
2023-05-20T19:43:08.645Z,4.80
2023-05-20T19:45:37.222Z,5.20
2023-05-20T19:48:07.674Z,5.10
2023-05-20T19:50:38.693Z,4.50
2023-05-20T19:53:10.375Z,4.40
2023-05-20T19:55:38.870Z,5.60
2023-05-20T19:58:09.231Z,4.80
2023-05-20T20:00:40.818Z,3.90
2023-05-20T20:03:12.259Z,4.50
2023-05-20T20:05:40.462Z,4.40
2023-05-20T20:08:08.589Z,5.00
2023-05-20T20:10:37.720Z,4.90
2023-05-20T20:13:05.864Z,6.00
2023-05-20T20:15:34.113Z,4.90
2023-05-20T20:18:07.467Z,4.80
2023-05-20T20:20:39.974Z,5.00
2023-05-20T20:23:08.306Z,5.70
2023-05-20T20:25:38.678Z,5.00
2023-05-20T20:28:07.658Z,4.50
2023-05-20T20:30:36.375Z,5.30
2023-05-20T20:33:09.585Z,6.00
2023-05-20T20:35:40.143Z,4.80
2023-05-20T20:38:10.258Z,6.40
2023-05-20T20:40:47.286Z,5.40
2023-05-20T20:43:20.932Z,6.60
2023-05-20T20:45:53.147Z,5.50
2023-05-20T20:48:27.273Z,5.60
2023-05-20T20:50:56.508Z,5.80
2023-05-20T20:53:24.623Z,5.90
2023-05-20T20:55:56.091Z,6.70
2023-05-20T20:58:24.468Z,5.70
2023-05-20T21:00:54.340Z,5.70
2023-05-20T21:03:26.480Z,6.50
2023-05-20T21:05:54.744Z,6.30
2023-05-20T21:08:27.766Z,5.90
2023-05-20T21:10:59.414Z,5.70
2023-05-20T21:13:27.972Z,6.60
2023-05-20T21:15:59.100Z,5.60
2023-05-20T21:18:27.172Z,5.90
2023-05-20T21:20:57.866Z,5.90
2023-05-20T21:23:25.972Z,6.30
2023-05-20T21:25:55.124Z,6.20
2023-05-20T21:28:23.104Z,5.30
2023-05-20T21:30:51.037Z,5.90
2023-05-20T21:33:24.264Z,5.90
2023-05-20T21:35:55.451Z,5.40
2023-05-20T21:38:23.531Z,5.30
2023-05-20T21:40:54.417Z,6.00
2023-05-20T21:43:27.868Z,5.80
2023-05-20T21:45:55.895Z,6.70
2023-05-20T21:48:23.908Z,5.90
2023-05-20T21:50:54.722Z,6.00
2023-05-20T21:53:22.763Z,5.80
2023-05-20T21:55:50.680Z,5.90
2023-05-20T21:58:18.741Z,7.40
2023-05-20T22:00:46.718Z,5.90
2023-05-20T22:03:14.809Z,6.00
2023-05-20T22:05:46.305Z,5.80
2023-05-20T22:08:14.304Z,6.00
2023-05-20T22:10:44.678Z,5.20
2023-05-20T22:13:13.704Z,6.10
2023-05-20T22:15:44.002Z,5.70
2023-05-20T22:18:14.897Z,5.50
2023-05-20T22:20:46.039Z,5.80
2023-05-20T22:23:14.006Z,5.20
2023-05-20T22:25:48.313Z,5.80
2023-05-20T22:30:47.766Z,5.70
2023-05-20T22:33:17.996Z,5.70
2023-05-20T22:35:49.040Z,5.50
2023-05-20T22:38:17.042Z,5.80
2023-05-20T22:40:45.097Z,5.00
2023-05-20T22:43:13.240Z,5.40
2023-05-20T22:45:43.395Z,5.40
2023-05-20T22:48:12.479Z,5.20
2023-05-20T22:50:41.500Z,6.30
2023-05-20T22:53:15.477Z,6.40
2023-05-20T22:55:45.141Z,5.30
2023-05-20T22:58:13.448Z,4.90
2023-05-20T23:00:44.629Z,6.00
2023-05-20T23:03:12.748Z,6.00
2023-05-20T23:05:42.488Z,5.70
2023-05-20T23:08:13.336Z,5.80
2023-05-20T23:10:41.470Z,6.00
2023-05-20T23:13:09.394Z,5.80
2023-05-20T23:15:41.154Z,5.80
2023-05-20T23:18:09.157Z,5.10
2023-05-20T23:20:40.622Z,6.20
2023-05-20T23:23:11.568Z,5.10
2023-05-20T23:25:40.083Z,5.60
2023-05-20T23:28:08.296Z,5.20
2023-05-20T23:30:36.593Z,5.90
2023-05-20T23:33:04.811Z,5.60
2023-05-20T23:35:35.519Z,6.30
2023-05-20T23:38:03.616Z,5.70
2023-05-20T23:40:31.596Z,5.10
2023-05-20T23:43:02.320Z,5.90
2023-05-20T23:45:30.251Z,4.90
2023-05-20T23:47:58.340Z,5.00
2023-05-20T23:50:27.840Z,6.40
2023-05-20T23:52:55.783Z,6.10
2023-05-20T23:55:28.438Z,6.00
2023-05-20T23:57:59.376Z,5.90
